createdAt,value
2022-09-26T00:05:28.130Z,30.00
2022-09-26T00:16:13.070Z,27.80
2022-09-26T00:27:09.813Z,28.20
2022-09-26T00:38:17.115Z,26.20
2022-09-26T00:49:43.710Z,27.90
2022-09-26T01:00:50.805Z,27.40
2022-09-26T01:11:52.987Z,28.00
2022-09-26T01:22:52.859Z,26.10
2022-09-26T01:34:26.365Z,25.90
2022-09-26T01:45:31.307Z,28.80
2022-09-26T01:56:22.721Z,26.90
2022-09-26T02:07:33.609Z,27.00
2022-09-26T02:18:38.830Z,28.40
2022-09-26T02:29:07.670Z,28.00
2022-09-26T02:40:05.821Z,29.50
2022-09-26T02:51:15.077Z,30.40
2022-09-26T03:02:18.581Z,33.90
2022-09-26T03:13:35.299Z,29.80
2022-09-26T03:25:00.686Z,32.20
2022-09-26T03:36:09.176Z,29.70
2022-09-26T03:46:40.423Z,28.00
2022-09-26T03:57:47.510Z,28.70
2022-09-26T04:09:01.933Z,32.50
2022-09-26T04:20:18.466Z,31.30
2022-09-26T04:31:41.594Z,31.60
2022-09-26T04:42:42.829Z,28.50
2022-09-26T04:53:50.896Z,26.70
2022-09-26T05:04:59.933Z,29.60
2022-09-26T05:15:32.843Z,29.10
2022-09-26T05:26:42.427Z,27.50
2022-09-26T05:37:12.342Z,30.00
2022-09-26T05:48:07.349Z,30.40
2022-09-26T05:58:56.593Z,30.50
2022-09-26T06:10:05.219Z,30.30
2022-09-26T06:20:57.878Z,32.40
2022-09-26T06:31:36.390Z,30.10
2022-09-26T06:42:56.961Z,34.20
2022-09-26T06:54:14.218Z,36.80
2022-09-26T07:05:07.441Z,36.10
2022-09-26T07:15:51.694Z,35.00
2022-09-26T07:27:04.831Z,34.00
2022-09-26T07:38:05.116Z,37.30
2022-09-26T07:48:53.954Z,36.40
2022-09-26T07:59:54.398Z,37.70
2022-09-26T08:10:49.077Z,33.80
2022-09-26T08:21:37.532Z,37.20
2022-09-26T08:32:30.481Z,34.80
2022-09-26T08:43:40.643Z,36.40
2022-09-26T08:54:24.643Z,35.20
2022-09-26T09:05:00.033Z,34.40
2022-09-26T09:16:11.145Z,34.20
2022-09-26T09:38:18.445Z,33.50
2022-09-26T09:48:38.775Z,31.30
2022-09-26T09:59:29.265Z,30.00
2022-09-26T10:10:14.410Z,25.20
2022-09-26T10:21:09.608Z,17.60
2022-09-26T10:31:43.327Z,18.10
2022-09-26T10:42:09.918Z,11.60
2022-09-26T10:52:27.099Z,14.00
2022-09-26T11:02:57.122Z,14.80
2022-09-26T11:13:45.189Z,13.90
2022-09-26T11:24:42.970Z,16.10
2022-09-26T11:34:54.476Z,13.20
2022-09-26T11:45:42.830Z,12.10
2022-09-26T11:57:49.220Z,15.10
2022-09-26T12:08:30.264Z,13.70
2022-09-26T12:19:00.271Z,13.80
2022-09-26T12:29:45.574Z,14.50
2022-09-26T12:40:24.685Z,15.70
2022-09-26T12:50:57.753Z,14.60
2022-09-26T13:01:47.775Z,13.20
2022-09-26T13:12:08.492Z,12.40
2022-09-26T13:22:40.062Z,12.20
2022-09-26T13:32:55.957Z,12.10
2022-09-26T13:54:14.360Z,8.80
2022-09-26T14:04:41.113Z,10.70
2022-09-26T14:15:16.366Z,9.90
2022-09-26T14:26:08.701Z,15.30
2022-09-26T14:47:09.769Z,18.40
2022-09-26T14:57:31.773Z,16.20
2022-09-26T15:08:00.681Z,11.50
2022-09-26T15:18:26.739Z,17.10
2022-09-26T15:28:39.006Z,30.10
2022-09-26T15:39:50.820Z,23.60
2022-09-26T15:50:56.304Z,20.80
2022-09-26T16:01:51.961Z,18.60
2022-09-26T16:12:36.843Z,20.40
2022-09-26T16:23:34.429Z,20.40
2022-09-26T16:33:50.401Z,20.20
2022-09-26T16:54:28.880Z,37.30
2022-09-26T17:04:41.799Z,38.40
2022-09-26T17:15:07.881Z,11.20
2022-09-26T17:25:36.143Z,13.60
2022-09-26T17:36:23.458Z,25.80
2022-09-26T17:46:48.478Z,13.70
2022-09-26T17:58:08.187Z,8.80
2022-09-26T18:19:52.388Z,12.60
2022-09-26T18:31:00.468Z,11.00
2022-09-26T18:41:57.253Z,7.70
2022-09-26T18:52:35.694Z,24.90
2022-09-26T19:02:49.479Z,12.60
2022-09-26T19:13:15.817Z,7.40
2022-09-26T19:35:58.704Z,13.50
2022-09-26T19:46:38.645Z,8.20
2022-09-26T19:56:48.334Z,15.00
2022-09-26T20:06:58.639Z,10.30
2022-09-26T20:17:37.145Z,13.90
2022-09-26T20:28:00.237Z,11.20
2022-09-26T20:38:32.187Z,14.20
2022-09-26T20:49:10.169Z,10.40
2022-09-26T20:59:41.751Z,9.80
2022-09-26T21:10:40.186Z,15.70
2022-09-26T21:20:51.563Z,12.90
2022-09-26T21:32:04.828Z,13.50
2022-09-26T21:42:47.157Z,11.70
2022-09-26T21:53:40.626Z,14.90
2022-09-26T22:04:15.652Z,18.40
2022-09-26T22:14:41.845Z,14.10
2022-09-26T22:25:02.585Z,15.80
2022-09-26T22:35:16.661Z,19.90
2022-09-26T22:46:23.210Z,18.10
2022-09-26T22:57:05.400Z,20.60
2022-09-26T23:07:32.009Z,17.10
2022-09-26T23:18:42.004Z,17.60
2022-09-26T23:29:22.362Z,19.10
2022-09-26T23:40:04.805Z,17.60
2022-09-26T23:50:34.036Z,18.10
